Time;durP1;ratioP1;P1;durP2;ratioP2;P2;SDS_P1;SDS_P2;PMS_P1;PMS_P2;Temp;Humidity;BMP_temperature;BMP_pressure;BME280_temperature;BME280_humidity;BME280_pressure;Samples;Min_cycle;Max_cycle;Signal;HPM_P1;HPM_P2
2023/10/29 00:02:16;;;;;;;14.57;7.32;;;;;;;10.57;100.00;98176.97;4469980;32;20081;-82
2023/10/29 00:04:43;;;;;;;12.25;6.82;;;;;;;10.51;100.00;98190.66;4469967;32;20089;-82
2023/10/29 00:07:11;;;;;;;10.50;6.40;;;;;;;10.52;100.00;98198.34;4469620;32;20122;-82
2023/10/29 00:09:38;;;;;;;10.32;6.68;;;;;;;10.54;100.00;98200.84;4469804;32;20096;-82
2023/10/29 00:12:06;;;;;;;13.07;6.10;;;;;;;10.51;100.00;98201.13;4469865;32;20552;-82
2023/10/29 00:14:33;;;;;;;12.37;6.10;;;;;;;10.48;100.00;98200.47;4469723;32;20093;-82
2023/10/29 00:17:01;;;;;;;10.90;6.25;;;;;;;10.44;100.00;98196.50;4473053;32;20092;-82
2023/10/29 00:19:29;;;;;;;9.40;5.78;;;;;;;10.46;100.00;98197.19;4485679;32;20442;-82
2023/10/29 00:21:56;;;;;;;8.27;5.75;;;;;;;10.42;100.00;98190.59;4485314;32;20096;-82
2023/10/29 00:24:23;;;;;;;10.20;6.12;;;;;;;10.54;100.00;98188.56;4485567;32;20097;-82
2023/10/29 00:26:51;;;;;;;8.98;6.28;;;;;;;10.65;100.00;98182.28;4485263;32;20097;-82
2023/10/29 00:29:18;;;;;;;10.07;6.90;;;;;;;10.66;100.00;98186.53;4485551;32;20084;-82
2023/10/29 00:31:46;;;;;;;9.95;7.05;;;;;;;10.64;100.00;98185.84;4485557;32;20561;-82
2023/10/29 00:34:14;;;;;;;11.23;7.07;;;;;;;10.63;100.00;98184.22;4485381;32;20147;-82
2023/10/29 00:36:41;;;;;;;10.75;6.97;;;;;;;10.58;100.00;98187.31;4485473;32;20573;-82
2023/10/29 00:39:09;;;;;;;15.98;7.03;;;;;;;10.60;100.00;98184.53;4485368;32;20377;-82
2023/10/29 00:41:37;;;;;;;10.40;6.75;;;;;;;10.60;100.00;98176.69;4485325;32;20598;-82
2023/10/29 00:44:05;;;;;;;12.37;7.32;;;;;;;10.57;100.00;98175.19;4485188;32;20467;-82
2023/10/29 00:46:33;;;;;;;12.23;7.43;;;;;;;10.68;100.00;98175.91;4484955;32;20080;-82
2023/10/29 00:49:02;;;;;;;12.07;7.15;;;;;;;10.72;100.00;98180.69;4471369;32;20100;-82
2023/10/29 00:51:30;;;;;;;15.32;8.07;;;;;;;10.73;100.00;98179.69;4485210;32;20084;-82
2023/10/29 00:53:58;;;;;;;14.70;7.78;;;;;;;10.74;100.00;98181.34;4470994;32;20599;-82
2023/10/29 00:56:26;;;;;;;12.57;8.25;;;;;;;10.77;100.00;98186.28;4485289;32;20143;-82
2023/10/29 00:58:55;;;;;;;14.48;8.43;;;;;;;10.73;100.00;98171.03;4485334;32;20104;-81
2023/10/29 01:01:22;;;;;;;13.02;7.20;;;;;;;10.63;100.00;98165.91;4485310;32;20461;-82
2023/10/29 01:03:51;;;;;;;11.93;6.80;;;;;;;10.61;100.00;98165.22;4485088;32;20149;-81
2023/10/29 01:06:19;;;;;;;9.15;5.57;;;;;;;10.68;100.00;98166.25;4485211;32;20104;-82
2023/10/29 01:08:47;;;;;;;10.60;6.70;;;;;;;10.75;100.00;98158.59;4484932;32;20096;-82
2023/10/29 01:11:15;;;;;;;14.27;6.78;;;;;;;10.88;100.00;98153.78;4485106;32;20473;-82
2023/10/29 01:13:43;;;;;;;12.93;7.00;;;;;;;10.90;100.00;98156.22;4484985;32;20092;-82
2023/10/29 01:16:12;;;;;;;10.18;7.03;;;;;;;10.93;100.00;98159.38;4484973;32;20474;-82
2023/10/29 01:18:39;;;;;;;12.73;7.57;;;;;;;10.99;100.00;98161.38;4484831;32;20229;-82
2023/10/29 01:21:08;;;;;;;15.32;7.80;;;;;;;10.93;100.00;98158.53;4485165;32;20097;-82
2023/10/29 01:23:36;;;;;;;13.55;7.75;;;;;;;10.89;100.00;98165.91;4484922;32;20192;-82
2023/10/29 01:26:04;;;;;;;11.32;7.50;;;;;;;10.91;100.00;98173.63;4485156;32;20129;-82
2023/10/29 01:28:31;;;;;;;13.18;7.95;;;;;;;10.83;100.00;98169.94;4465783;32;20120;-82
2023/10/29 01:31:00;;;;;;;11.90;7.60;;;;;;;10.88;100.00;98172.13;4485003;32;20433;-81
2023/10/29 01:33:28;;;;;;;11.38;7.07;;;;;;;10.86;100.00;98178.50;4485127;32;20088;-81
2023/10/29 01:35:55;;;;;;;10.52;6.55;;;;;;;10.78;100.00;98182.69;4484969;32;20080;-82
2023/10/29 01:38:23;;;;;;;8.68;6.03;;;;;;;10.73;100.00;98184.94;4484991;32;20089;-82
2023/10/29 01:40:51;;;;;;;15.07;7.07;;;;;;;10.63;100.00;98184.22;4485154;32;20085;-82
2023/10/29 01:43:18;;;;;;;11.55;7.22;;;;;;;10.58;100.00;98186.47;4484927;32;20088;-81
2023/10/29 01:45:46;;;;;;;13.50;7.15;;;;;;;10.53;100.00;98184.31;4485219;32;20092;-81
2023/10/29 01:48:13;;;;;;;11.43;6.57;;;;;;;10.51;100.00;98185.41;4484677;32;20123;-81
2023/10/29 01:50:41;;;;;;;12.27;7.00;;;;;;;10.53;100.00;98184.31;4485237;32;20131;-81
2023/10/29 01:53:08;;;;;;;10.85;6.28;;;;;;;10.62;100.00;98180.78;4484973;32;20107;-82
2023/10/29 01:55:37;;;;;;;9.88;6.50;;;;;;;10.55;100.00;98186.75;4484705;32;20159;-82
2023/10/29 01:58:04;;;;;;;13.05;5.97;;;;;;;10.47;100.00;98188.34;4484926;32;20088;-81
2023/10/29 02:00:31;;;;;;;11.35;6.28;;;;;;;10.41;100.00;98194.19;4484907;32;20160;-82
2023/10/29 02:02:59;;;;;;;8.45;5.62;;;;;;;10.37;100.00;98195.47;4484745;32;20100;-82
2023/10/29 02:05:26;;;;;;;9.23;5.15;;;;;;;10.24;100.00;98190.56;4484879;32;20477;-82
2023/10/29 02:07:55;;;;;;;7.68;5.00;;;;;;;10.18;100.00;98185.94;4484575;32;20092;-82
2023/10/29 02:10:25;;;;;;;8.68;5.55;;;;;;;10.11;100.00;98188.31;4484849;32;20108;-82
2023/10/29 02:12:53;;;;;;;8.13;5.20;;;;;;;10.10;100.00;98196.34;4484677;32;20092;-82
2023/10/29 02:15:22;;;;;;;8.70;5.35;;;;;;;10.21;100.00;98190.06;4484833;32;20173;-82
2023/10/29 02:17:49;;;;;;;9.50;6.00;;;;;;;10.21;100.00;98201.34;4484483;32;20116;-82
2023/10/29 02:20:17;;;;;;;9.52;5.97;;;;;;;10.18;100.00;98190.34;4484632;32;20088;-82
2023/10/29 02:22:46;;;;;;;10.70;5.72;;;;;;;10.35;100.00;98201.81;4484947;32;20227;-82
2023/10/29 02:25:13;;;;;;;8.10;5.32;;;;;;;10.34;100.00;98195.78;4484419;32;20076;-82
2023/10/29 02:27:40;;;;;;;7.20;4.90;;;;;;;10.18;100.00;98201.63;4482325;32;20166;-82
2023/10/29 02:30:08;;;;;;;8.98;5.00;;;;;;;10.30;100.00;98204.84;4484753;32;20157;-81
2023/10/29 02:32:41;;;;;;;10.18;6.12;;;;;;;10.21;100.00;98208.38;4484803;32;20084;-81
2023/10/29 02:35:09;;;;;;;10.95;6.15;;;;;;;10.21;100.00;98211.00;4484604;32;20084;-82
2023/10/29 02:37:36;;;;;;;10.10;6.55;;;;;;;10.27;100.00;98215.63;4484699;32;20119;-82
2023/10/29 02:40:03;;;;;;;12.75;6.37;;;;;;;10.25;100.00;98212.31;4484483;32;20097;-82
2023/10/29 02:42:31;;;;;;;9.40;5.80;;;;;;;10.18;100.00;98208.66;4484462;32;20108;-82
2023/10/29 02:44:58;;;;;;;10.90;6.65;;;;;;;10.20;100.00;98204.09;4484342;32;20095;-81
2023/10/29 02:47:26;;;;;;;13.73;6.35;;;;;;;10.13;100.00;98217.78;4484486;32;20084;-82
2023/10/29 02:49:54;;;;;;;10.10;6.37;;;;;;;10.05;100.00;98211.63;4484427;32;20084;-82
2023/10/29 02:52:21;;;;;;;15.35;7.03;;;;;;;10.01;100.00;98205.03;4484387;32;20156;-82
2023/10/29 02:54:49;;;;;;;13.88;7.37;;;;;;;9.94;100.00;98199.59;4484147;32;20473;-81
2023/10/29 02:57:17;;;;;;;11.07;6.82;;;;;;;9.82;100.00;98191.09;4484353;32;20164;-81
2023/10/29 02:59:44;;;;;;;10.82;6.15;;;;;;;10.01;100.00;98195.41;4484346;32;20118;-81
2023/10/29 03:02:12;;;;;;;12.57;7.05;;;;;;;9.90;100.00;98199.06;4484149;32;20501;-81
2023/10/29 03:04:41;;;;;;;11.38;7.18;;;;;;;9.95;100.00;98201.25;4484003;32;20122;-82
2023/10/29 03:07:11;;;;;;;14.90;8.23;;;;;;;9.98;100.00;98206.19;4483537;32;20108;-82
2023/10/29 03:09:40;;;;;;;14.50;7.80;;;;;;;9.82;100.00;98201.56;4483518;32;20089;-82
2023/10/29 03:12:09;;;;;;;14.18;7.22;;;;;;;9.85;100.00;98205.69;4484165;32;20097;-82
2023/10/29 03:14:36;;;;;;;12.27;7.60;;;;;;;9.81;100.00;98199.94;4483839;32;20133;-82
2023/10/29 03:17:04;;;;;;;15.52;7.90;;;;;;;9.89;100.00;98201.81;4483895;32;20198;-82
2023/10/29 03:19:33;;;;;;;14.25;7.22;;;;;;;9.82;100.00;98200.75;4483870;32;20156;-82
2023/10/29 03:22:04;;;;;;;13.95;8.65;;;;;;;9.88;100.00;98208.84;4483889;32;20085;-82
2023/10/29 03:24:33;;;;;;;17.42;7.75;;;;;;;9.90;100.00;98213.91;4483964;32;20119;-82
2023/10/29 03:27:01;;;;;;;19.70;7.82;;;;;;;9.91;100.00;98205.09;4483941;32;20092;-82
2023/10/29 03:29:29;;;;;;;16.55;6.90;;;;;;;9.88;100.00;98210.63;4483628;32;20104;-82
2023/10/29 03:31:57;;;;;;;14.48;7.03;;;;;;;9.81;100.00;98220.03;4483696;32;20115;-81
2023/10/29 03:34:26;;;;;;;11.93;6.47;;;;;;;9.76;100.00;98205.62;4483379;32;20492;-81
2023/10/29 03:36:55;;;;;;;16.75;7.28;;;;;;;9.78;100.00;98205.47;4483765;32;20600;-82
2023/10/29 03:39:24;;;;;;;13.60;6.47;;;;;;;9.85;100.00;98216.16;4483717;32;20142;-82
2023/10/29 03:41:51;;;;;;;13.05;6.45;;;;;;;9.90;100.00;98213.91;4483548;32;20607;-82
2023/10/29 03:44:18;;;;;;;13.52;6.53;;;;;;;9.84;100.00;98214.50;4483653;32;20118;-81
2023/10/29 03:46:50;;;;;;;14.43;6.32;;;;;;;9.79;100.00;98211.50;4483802;32;20139;-81
2023/10/29 03:49:20;;;;;;;11.48;5.93;;;;;;;9.82;100.00;98203.38;4483596;32;20089;-82
2023/10/29 03:51:48;;;;;;;9.80;6.10;;;;;;;9.82;100.00;98201.56;4483311;32;20504;-81
2023/10/29 03:54:15;;;;;;;12.30;5.85;;;;;;;9.80;100.00;98205.31;4483465;32;20107;-82
2023/10/29 03:56:42;;;;;;;8.63;5.40;;;;;;;9.72;100.00;98212.09;4483208;32;20448;-81
2023/10/29 03:59:10;;;;;;;9.77;5.62;;;;;;;9.81;100.00;98201.72;4483412;32;20089;-82
2023/10/29 04:01:37;;;;;;;11.95;5.78;;;;;;;9.74;100.00;98199.69;4483274;32;20092;-82
2023/10/29 04:04:08;;;;;;;11.95;5.75;;;;;;;9.72;100.00;98196.41;4469408;32;20092;-81
2023/10/29 04:06:35;;;;;;;13.77;6.30;;;;;;;9.68;100.00;98196.84;4483252;32;20157;-81
2023/10/29 04:09:02;;;;;;;11.38;5.43;;;;;;;9.64;100.00;98198.91;4483161;32;20157;-82
2023/10/29 04:11:30;;;;;;;13.05;5.80;;;;;;;9.56;100.00;98202.25;4483119;32;20488;-82
2023/10/29 04:13:59;;;;;;;12.77;6.35;;;;;;;9.62;100.00;98194.81;4483223;32;20104;-82
2023/10/29 04:16:28;;;;;;;11.25;6.18;;;;;;;9.61;100.00;98191.34;4482887;32;20123;-82
2023/10/29 04:18:57;;;;;;;13.57;6.65;;;;;;;9.65;100.00;98204.97;4483706;32;20108;-81
2023/10/29 04:21:24;;;;;;;10.15;5.47;;;;;;;9.64;100.00;98201.53;4485276;32;20500;-82
2023/10/29 04:23:52;;;;;;;12.98;5.85;;;;;;;9.59;100.00;98193.31;4485368;32;20160;-81
2023/10/29 04:26:20;;;;;;;11.38;5.68;;;;;;;9.63;100.00;98197.28;4485584;32;20103;-81
2023/10/29 04:28:49;;;;;;;10.38;5.30;;;;;;;9.70;100.00;98206.19;4485334;32;20118;-82
2023/10/29 04:31:16;;;;;;;9.02;5.28;;;;;;;9.63;100.00;98204.28;4485352;32;20093;-81
2023/10/29 04:33:45;;;;;;;11.80;5.75;;;;;;;9.62;100.00;98203.47;4485189;32;20085;-82
2023/10/29 04:36:22;;;;;;;10.40;5.12;;;;;;;9.56;100.00;98204.06;4485395;32;20130;-82
2023/10/29 04:38:49;;;;;;;11.75;5.40;;;;;;;9.56;100.00;98198.81;4485553;32;20088;-82
2023/10/29 04:41:17;;;;;;;9.73;5.55;;;;;;;9.53;100.00;98202.53;4485414;32;20045;-82
2023/10/29 04:43:44;;;;;;;9.98;5.20;;;;;;;9.44;100.00;98197.38;4485465;32;20096;-81
2023/10/29 04:46:13;;;;;;;11.85;5.25;;;;;;;9.38;100.00;98204.00;4485359;32;20139;-82
2023/10/29 04:48:41;;;;;;;13.30;5.32;;;;;;;9.41;100.00;98196.66;4471153;32;20131;-81
2023/10/29 04:51:08;;;;;;;10.52;5.50;;;;;;;9.40;100.00;98202.87;4485190;32;20139;-82
2023/10/29 04:53:37;;;;;;;9.77;5.37;;;;;;;9.53;100.00;98202.53;4485064;32;20394;-81
2023/10/29 04:56:04;;;;;;;9.48;5.55;;;;;;;9.54;100.00;98206.00;4485239;32;20088;-81
2023/10/29 04:58:32;;;;;;;11.10;5.55;;;;;;;9.56;100.00;98204.88;4485369;32;20088;-82
2023/10/29 05:01:02;;;;;;;8.05;4.90;;;;;;;9.63;100.00;98199.91;4485373;32;20109;-82
2023/10/29 05:03:29;;;;;;;10.45;5.30;;;;;;;9.62;100.00;98202.66;4485237;32;20075;-81
2023/10/29 05:05:57;;;;;;;10.50;5.93;;;;;;;9.58;100.00;98205.56;4485357;32;20112;-81
2023/10/29 05:08:25;;;;;;;9.52;4.68;;;;;;;9.52;100.00;98197.47;4485163;32;20101;-82
2023/10/29 05:10:52;;;;;;;10.77;5.20;;;;;;;9.53;100.00;98206.97;4485082;32;20088;-81
2023/10/29 05:13:19;;;;;;;12.52;4.95;;;;;;;9.62;100.00;98206.09;4485241;32;20112;-82
2023/10/29 05:15:47;;;;;;;10.32;5.35;;;;;;;9.68;100.00;98205.50;4485053;32;20429;-81
2023/10/29 05:18:16;;;;;;;12.15;5.07;;;;;;;9.77;100.00;98191.56;4484972;32;20171;-82
2023/10/29 05:20:43;;;;;;;12.73;5.28;;;;;;;9.87;100.00;98203.75;4485177;32;20525;-82
2023/10/29 05:23:11;;;;;;;10.18;4.97;;;;;;;9.87;100.00;98201.13;4484853;32;20085;-82
2023/10/29 05:25:39;;;;;;;10.73;4.95;;;;;;;9.80;100.00;98213.19;4484691;32;20162;-82
2023/10/29 05:28:07;;;;;;;9.65;5.20;;;;;;;9.81;100.00;98206.94;4484996;32;20128;-81
2023/10/29 05:30:36;;;;;;;12.95;4.75;;;;;;;9.71;100.00;98207.03;4484469;32;20149;-82
2023/10/29 05:33:04;;;;;;;9.52;5.10;;;;;;;9.72;100.00;98206.88;4484792;32;20377;-82
2023/10/29 05:35:31;;;;;;;11.75;6.40;;;;;;;9.71;100.00;98215.69;4478242;32;204792;-81
2023/10/29 05:37:59;;;;;;;9.88;5.30;;;;;;;9.73;100.00;98216.34;4484977;32;20100;-82
2023/10/29 05:40:26;;;;;;;10.75;5.10;;;;;;;9.73;100.00;98218.97;4485016;32;20101;-81
2023/10/29 05:42:54;;;;;;;15.23;5.45;;;;;;;9.71;100.00;98215.69;4484834;32;20114;-81
2023/10/29 05:45:22;;;;;;;10.43;5.18;;;;;;;9.80;100.00;98218.41;4484969;32;20150;-81
2023/10/29 05:47:49;;;;;;;10.25;5.72;;;;;;;9.85;100.00;98224.00;4484732;32;20096;-81
2023/10/29 05:50:17;;;;;;;8.85;5.45;;;;;;;9.86;100.00;98233.53;4484855;32;20151;-82
2023/10/29 05:52:49;;;;;;;11.60;6.20;;;;;;;9.88;100.00;98231.56;4485021;32;20084;-81
2023/10/29 05:55:19;;;;;;;16.52;7.45;;;;;;;9.93;100.00;98232.78;4485048;32;20114;-81
2023/10/29 05:57:47;;;;;;;17.05;7.87;;;;;;;9.99;100.00;98233.97;4484867;32;20084;-82
2023/10/29 06:00:16;;;;;;;11.48;6.70;;;;;;;10.04;100.00;98231.75;4484737;32;20120;-82
2023/10/29 06:02:43;;;;;;;16.55;7.30;;;;;;;10.02;100.00;98236.31;4484659;32;20095;-82
2023/10/29 06:05:10;;;;;;;13.15;6.97;;;;;;;10.13;100.00;98241.34;4484950;32;20092;-82
2023/10/29 06:07:42;;;;;;;12.82;6.55;;;;;;;10.20;100.00;98235.50;4484684;32;20092;-82
2023/10/29 06:10:13;;;;;;;19.65;8.80;;;;;;;10.19;100.00;98236.47;4484783;32;20457;-82
2023/10/29 06:12:41;;;;;;;13.98;7.30;;;;;;;10.18;100.00;98245.31;4484549;32;20548;-82
2023/10/29 06:15:10;;;;;;;12.70;7.25;;;;;;;10.21;100.00;98255.50;4484763;32;20103;-82
2023/10/29 06:17:41;;;;;;;14.00;6.80;;;;;;;10.19;100.00;98258.25;4484678;32;20255;-82
2023/10/29 06:20:10;;;;;;;13.65;7.00;;;;;;;10.18;100.00;98258.41;4484732;32;20176;-82
2023/10/29 06:22:38;;;;;;;13.88;6.87;;;;;;;10.34;100.00;98263.84;4484569;32;20545;-82
2023/10/29 06:25:08;;;;;;;13.00;6.57;;;;;;;10.38;100.00;98266.97;4484513;32;20100;-82
2023/10/29 06:27:35;;;;;;;14.85;5.53;;;;;;;10.52;100.00;98268.25;4484350;32;20122;-82
2023/10/29 06:30:04;;;;;;;14.68;6.12;;;;;;;10.73;100.00;98260.91;4484576;32;20092;-82
2023/10/29 06:32:34;;;;;;;11.40;6.05;;;;;;;10.82;100.00;98257.41;4484394;32;20084;-82
2023/10/29 06:35:02;;;;;;;13.62;6.68;;;;;;;10.92;100.00;98261.75;4484152;32;20080;-82
2023/10/29 06:37:30;;;;;;;10.55;6.05;;;;;;;11.06;100.00;98258.56;4484514;32;20135;-82
2023/10/29 06:39:58;;;;;;;16.15;6.57;;;;;;;11.03;100.00;98261.50;4484537;32;20093;-82
2023/10/29 06:42:27;;;;;;;15.00;6.22;;;;;;;11.11;100.00;98264.19;4483071;32;20146;-82
2023/10/29 06:44:54;;;;;;;12.52;6.30;;;;;;;11.19;100.00;98273.91;4484304;32;20142;-82
2023/10/29 06:47:22;;;;;;;10.43;6.05;;;;;;;11.27;100.00;98275.75;4484643;32;20085;-82
2023/10/29 06:49:52;;;;;;;9.45;5.50;;;;;;;11.23;100.00;98287.53;4484146;32;20396;-82
2023/10/29 06:52:20;;;;;;;11.07;6.10;;;;;;;11.43;100.00;98285.50;4484730;32;20137;-82
2023/10/29 06:54:47;;;;;;;10.90;5.68;;;;;;;11.52;100.00;98293.28;4484153;32;20115;-82
2023/10/29 06:57:15;;;;;;;13.25;6.05;;;;;;;11.62;100.00;98295.00;4484228;32;20164;-82
2023/10/29 06:59:45;;;;;;;10.77;5.87;;;;;;;11.53;100.00;98287.06;4484217;32;20088;-82
2023/10/29 07:02:12;;;;;;;16.58;7.05;;;;;;;11.65;100.00;98286.81;4484187;32;20484;-82
2023/10/29 07:04:39;;;;;;;11.07;6.03;;;;;;;11.52;100.00;98285.44;4484102;32;20096;-82
2023/10/29 07:07:07;;;;;;;12.50;6.78;;;;;;;11.62;100.00;98290.56;4484269;32;20432;-82
2023/10/29 07:09:35;;;;;;;14.93;5.90;;;;;;;11.54;100.00;98293.97;4483881;32;20096;-82
2023/10/29 07:12:03;;;;;;;12.05;6.65;;;;;;;11.65;100.00;98292.88;4484091;32;20483;-82
2023/10/29 07:14:32;;;;;;;17.98;8.45;;;;;;;11.84;100.00;98297.06;4483821;32;20402;-82
2023/10/29 07:16:59;;;;;;;17.25;6.60;;;;;;;11.88;100.00;98293.16;4484162;32;20101;-82
2023/10/29 07:19:26;;;;;;;15.30;7.03;;;;;;;12.06;100.00;98292.25;4483846;32;20092;-82
2023/10/29 07:21:54;;;;;;;16.35;7.45;;;;;;;12.20;100.00;98296.94;4483909;32;20438;-82
2023/10/29 07:24:21;;;;;;;14.93;6.65;;;;;;;12.35;100.00;98297.12;4483875;32;20087;-82
2023/10/29 07:26:48;;;;;;;11.68;6.20;;;;;;;12.12;100.00;98288.19;4483835;32;20097;-82
2023/10/29 07:29:17;;;;;;;13.32;5.60;;;;;;;12.20;100.00;98288.22;4483601;32;20163;-81
2023/10/29 07:31:45;;;;;;;13.77;5.40;;;;;;;12.48;100.00;98288.78;4483770;32;20097;-82
2023/10/29 07:34:13;;;;;;;10.57;5.03;;;;;;;12.68;100.00;98285.87;4483399;32;20083;-81
2023/10/29 07:36:44;;;;;;;12.07;6.40;;;;;;;12.72;100.00;98289.81;4483727;32;20104;-82
2023/10/29 07:39:13;;;;;;;9.93;5.15;;;;;;;12.75;100.00;98285.06;4483523;32;20093;-82
2023/10/29 07:41:41;;;;;;;9.50;5.35;;;;;;;12.89;100.00;98286.19;4483866;32;20168;-82
2023/10/29 07:44:09;;;;;;;10.93;4.75;;;;;;;12.99;100.00;98286.06;4483601;32;20100;-82
2023/10/29 07:46:36;;;;;;;7.78;4.37;;;;;;;13.07;100.00;98290.50;4483667;32;20101;-82
2023/10/29 07:49:04;;;;;;;9.00;4.45;;;;;;;13.19;100.00;98289.16;4483575;32;20572;-82
2023/10/29 07:51:31;;;;;;;10.90;5.37;;;;;;;13.27;100.00;98288.34;4483667;32;20570;-82
2023/10/29 07:54:01;;;;;;;15.57;5.57;;;;;;;13.28;100.00;98285.53;4484104;32;20119;-82
2023/10/29 07:56:28;;;;;;;9.68;5.10;;;;;;;12.89;100.00;98283.56;4485738;32;20498;-82
2023/10/29 07:58:56;;;;;;;11.55;5.80;;;;;;;13.33;100.00;98279.78;4485811;32;20119;-82
2023/10/29 08:01:23;;;;;;;11.80;5.25;;;;;;;13.51;100.00;98289.31;4485778;32;20096;-82
2023/10/29 08:03:55;;;;;;;11.93;5.70;;;;;;;13.73;100.00;98291.25;4485630;32;20588;-82
2023/10/29 08:06:23;;;;;;;11.57;4.57;;;;;;;13.63;100.00;98286.16;4485838;32;20104;-82
2023/10/29 08:08:52;;;;;;;7.93;4.45;;;;;;;13.68;100.00;98283.00;4471896;32;20443;-82
2023/10/29 08:11:20;;;;;;;10.70;3.95;;;;;;;13.75;100.00;98288.44;4485980;32;20130;-82
2023/10/29 08:13:48;;;;;;;10.75;4.87;;;;;;;13.59;100.00;98292.72;4485612;32;20447;-82
2023/10/29 08:16:16;;;;;;;10.02;4.85;;;;;;;13.56;100.00;98285.19;4485539;32;20450;-82
2023/10/29 08:18:43;;;;;;;10.40;4.60;;;;;;;13.53;100.00;98289.97;4485398;32;20533;-82
2023/10/29 08:21:10;;;;;;;8.88;4.90;;;;;;;13.68;100.00;98292.72;4485577;32;20088;-82
2023/10/29 08:23:42;;;;;;;13.00;4.68;;;;;;;13.80;100.00;98305.34;4485460;32;20424;-82
2023/10/29 08:26:11;;;;;;;13.23;4.93;;;;;;;14.12;100.00;98302.78;4485538;32;20100;-82
2023/10/29 08:28:38;;;;;;;9.55;4.70;;;;;;;14.00;100.00;98300.53;4485135;32;20080;-82
2023/10/29 08:31:06;;;;;;;15.60;5.65;;;;;;;14.24;100.00;98295.31;4485717;32;20097;-82
2023/10/29 08:33:34;;;;;;;11.60;4.40;;;;;;;13.99;100.00;98300.69;4485280;32;20450;-82
2023/10/29 08:36:03;;;;;;;9.73;4.93;;;;;;;14.30;100.00;98302.53;4485734;32;20488;-82
2023/10/29 08:38:30;;;;;;;9.70;5.03;;;;;;;14.52;100.00;98300.94;4485487;32;20092;-82
2023/10/29 08:40:57;;;;;;;10.40;5.30;;;;;;;14.46;100.00;98291.06;4485376;32;20118;-82
2023/10/29 08:43:24;;;;;;;9.85;4.90;;;;;;;14.32;100.00;98298.75;4485336;32;20092;-82
2023/10/29 08:45:51;;;;;;;9.13;4.32;;;;;;;14.30;100.00;98302.53;4471299;32;20108;-82
2023/10/29 08:48:21;;;;;;;8.13;4.05;;;;;;;14.36;100.00;98300.00;4485322;32;20088;-82
2023/10/29 08:50:48;;;;;;;10.02;4.50;;;;;;;14.50;100.00;98306.38;4485296;32;20088;-82
2023/10/29 08:53:15;;;;;;;5.37;3.97;;;;;;;14.51;100.00;98313.28;4470782;32;20115;-82
2023/10/29 08:55:43;;;;;;;9.63;5.20;;;;;;;14.36;100.00;98305.28;4485334;32;20148;-82
2023/10/29 08:58:11;;;;;;;14.63;5.37;;;;;;;14.61;100.00;98304.34;4485271;32;20118;-82
2023/10/29 09:00:40;;;;;;;12.85;5.22;;;;;;;14.25;100.00;98304.88;4485337;32;20159;-82
2023/10/29 09:03:14;;;;;;;13.93;4.78;;;;;;;14.60;100.00;98306.16;4485365;32;20130;-82
2023/10/29 09:05:42;;;;;;;5.28;3.65;;;;;;;14.79;100.00;98310.19;4484218;32;20088;-82
2023/10/29 09:08:10;;;;;;;6.50;3.45;;;;;;;14.90;100.00;98311.59;4485217;32;20455;-82
2023/10/29 09:10:42;;;;;;;5.87;3.17;;;;;;;15.15;100.00;98312.22;4485034;32;20118;-83
2023/10/29 09:13:10;;;;;;;8.55;3.92;;;;;;;15.46;100.00;98313.09;4485315;32;20092;-83
2023/10/29 09:15:38;;;;;;;6.82;3.47;;;;;;;15.50;100.00;98319.66;4484844;32;20157;-82
2023/10/29 09:18:06;;;;;;;7.53;3.30;;;;;;;15.58;100.00;98309.84;4485064;32;20690;-83
2023/10/29 09:20:36;;;;;;;6.95;3.12;;;;;;;15.73;100.00;98314.31;4485318;32;20088;-83
2023/10/29 09:23:04;;;;;;;7.05;3.42;;;;;;;15.90;100.00;98312.34;4485258;32;20084;-82
2023/10/29 09:25:32;;;;;;;6.28;2.80;;;;;;;16.17;100.00;98310.03;4484961;32;20568;-82
2023/10/29 09:28:04;;;;;;;7.00;3.28;;;;;;;15.93;100.00;98301.44;4483046;32;20471;-82
2023/10/29 09:30:33;;;;;;;4.07;2.60;;;;;;;15.79;100.00;98313.59;4485099;32;20110;-82
2023/10/29 09:33:01;;;;;;;6.78;2.95;;;;;;;15.50;100.00;98304.62;4485093;32;20152;-82
2023/10/29 09:35:29;;;;;;;3.83;2.78;;;;;;;15.96;100.00;98309.78;4484875;32;20123;-82
2023/10/29 09:37:57;;;;;;;9.82;3.78;;;;;;;16.17;100.00;98304.75;4485114;32;20104;-82
2023/10/29 09:40:26;;;;;;;8.90;3.00;;;;;;;16.09;100.00;98305.69;4484842;32;20088;-82
2023/10/29 09:42:55;;;;;;;11.25;4.47;;;;;;;16.20;100.00;98299.94;4484847;32;20176;-82
2023/10/29 09:45:27;;;;;;;8.43;3.40;;;;;;;16.29;100.00;98290.91;4484910;32;20182;-83
2023/10/29 09:47:56;;;;;;;7.03;3.50;;;;;;;16.43;100.00;98294.50;4484925;32;20098;-82
2023/10/29 09:50:23;;;;;;;7.40;3.28;;;;;;;16.33;100.00;98288.69;4484884;32;20141;-83
2023/10/29 09:52:54;;;;;;;9.43;3.42;;;;;;;16.33;100.00;98288.69;4484929;32;20079;-82
2023/10/29 09:55:22;;;;;;;8.38;3.30;;;;;;;16.40;100.00;98294.88;4484756;32;20119;-83
2023/10/29 09:57:50;;;;;;;6.40;3.08;;;;;;;16.58;100.00;98297.12;4484864;32;20089;-83
2023/10/29 10:00:18;;;;;;;9.75;3.70;;;;;;;16.84;100.00;98296.53;4484653;32;20145;-82
2023/10/29 10:02:50;;;;;;;4.87;3.40;;;;;;;16.77;100.00;98297.50;4484778;32;20092;-82
2023/10/29 10:05:20;;;;;;;6.60;1.30;;;;;;;16.98;100.00;98291.41;4484555;32;20136;-82
2023/10/29 10:07:49;;;;;;;2.58;1.12;;;;;;;17.18;100.00;98296.88;4470495;32;20088;-83
2023/10/29 10:10:16;;;;;;;4.25;1.10;;;;;;;17.50;100.00;98286.72;4484402;32;20081;-83
2023/10/29 10:12:51;;;;;;;4.68;0.75;;;;;;;17.80;100.00;98294.44;4484799;32;20092;-83
2023/10/29 10:15:19;;;;;;;4.00;1.12;;;;;;;17.93;100.00;98304.34;4470417;32;20536;-83
2023/10/29 10:17:57;;;;;;;4.25;0.88;;;;;;;18.06;100.00;98291.13;4469742;32;20104;-83
2023/10/29 10:20:25;;;;;;;3.58;0.93;;;;;;;18.13;100.00;98289.34;4468976;32;20103;-83
2023/10/29 10:23:08;;;;;;;3.25;1.08;;;;;;;18.35;100.00;98281.25;4468922;32;20127;-83
2023/10/29 10:25:35;;;;;;;4.60;0.82;;;;;;;18.51;100.00;98277.44;4468993;32;20571;-83
2023/10/29 10:28:03;;;;;;;5.78;0.80;;;;;;;18.61;100.00;98281.31;4474514;32;20536;-83
2023/10/29 10:30:35;;;;;;;3.37;0.90;;;;;;;18.62;100.00;98276.81;4484568;32;20176;-83
2023/10/29 10:33:19;;;;;;;5.45;1.02;;;;;;;18.80;100.00;98274.44;4484714;32;20080;-83
2023/10/29 10:35:51;;;;;;;4.05;0.90;;;;;;;18.99;100.00;98271.22;4484435;32;20097;-83
2023/10/29 10:38:19;;;;;;;4.80;0.62;;;;;;;19.05;100.00;98273.06;4484529;32;20396;-83
2023/10/29 10:40:49;;;;;;;2.80;0.90;;;;;;;19.08;98.73;98264.69;4484498;32;20096;-83
2023/10/29 10:43:20;;;;;;;2.15;0.68;;;;;;;19.14;100.00;98263.84;4470705;32;20177;-83
2023/10/29 10:45:50;;;;;;;2.20;0.62;;;;;;;19.17;100.00;98270.56;4484491;32;20080;-83
2023/10/29 10:48:18;;;;;;;7.90;0.90;;;;;;;19.19;100.00;98269.34;4484414;32;20118;-83
2023/10/29 10:50:47;;;;;;;16.23;1.02;;;;;;;19.38;100.00;98275.69;4484321;32;20438;-83
2023/10/29 10:53:19;;;;;;;3.90;0.80;;;;;;;19.37;100.00;98268.75;4484410;32;20096;-83
2023/10/29 10:55:46;;;;;;;5.72;0.70;;;;;;;19.43;98.40;98267.09;4484111;32;20096;-83
2023/10/29 10:58:31;;;;;;;2.50;0.68;;;;;;;19.46;96.51;98261.38;4472198;32;20115;-83
2023/10/29 11:00:58;;;;;;;1.58;0.57;;;;;;;19.41;93.80;98269.13;4484290;32;20159;-83
2023/10/29 11:03:30;;;;;;;1.58;0.60;;;;;;;19.52;95.92;98273.81;4484671;32;20108;-82
2023/10/29 11:06:02;;;;;;;1.90;0.60;;;;;;;19.59;94.41;98264.00;4484192;32;20972;-83
2023/10/29 11:08:31;;;;;;;4.15;0.93;;;;;;;19.75;94.94;98262.72;4484285;32;20109;-83
2023/10/29 11:10:59;;;;;;;2.20;0.70;;;;;;;19.68;92.03;98259.28;4483946;32;20114;-83
2023/10/29 11:13:27;;;;;;;5.32;0.65;;;;;;;19.83;93.11;98262.56;4484261;32;20528;-83
2023/10/29 11:15:55;;;;;;;2.47;0.70;;;;;;;19.81;92.85;98258.47;4481424;32;20100;-83
2023/10/29 11:18:31;;;;;;;5.32;0.85;;;;;;;19.65;94.10;98265.84;4468304;32;20097;-83
2023/10/29 11:21:04;;;;;;;4.30;0.80;;;;;;;19.72;96.32;98257.03;4468196;32;20144;-83
2023/10/29 11:23:33;;;;;;;2.30;0.80;;;;;;;19.94;93.26;98258.41;4468225;32;20148;-83
2023/10/29 11:26:20;;;;;;;5.47;1.10;;;;;;;20.07;91.35;98260.19;4468220;32;20096;-83
2023/10/29 11:28:52;;;;;;;3.42;0.75;;;;;;;19.92;90.13;98263.09;4461984;32;20152;-83